createdAt,value
2022-11-29T00:00:24.965Z,34.28
2022-11-29T00:02:55.902Z,47.45
2022-11-29T00:05:26.192Z,39.70
2022-11-29T00:07:56.267Z,45.47
2022-11-29T00:10:26.422Z,28.65
2022-11-29T00:12:56.478Z,40.42
2022-11-29T00:15:29.181Z,29.35
2022-11-29T00:17:59.239Z,30.13
2022-11-29T00:20:29.270Z,32.70
2022-11-29T00:22:59.260Z,61.50
2022-11-29T00:25:29.316Z,62.22
2022-11-29T00:27:59.935Z,37.40
2022-11-29T00:30:32.675Z,58.83
2022-11-29T00:33:03.859Z,42.65
2022-11-29T00:35:34.632Z,34.63
2022-11-29T00:38:04.768Z,32.00
2022-11-29T00:40:34.759Z,29.25
2022-11-29T00:43:04.872Z,27.58
2022-11-29T00:45:37.531Z,33.83
2022-11-29T00:48:08.213Z,42.33
2022-11-29T00:50:38.231Z,42.75
2022-11-29T00:53:08.405Z,30.08
2022-11-29T00:55:38.492Z,24.10
2022-11-29T00:58:09.063Z,31.05
2022-11-29T01:00:41.765Z,27.98
2022-11-29T01:03:12.115Z,17.65
2022-11-29T01:05:43.066Z,23.83
2022-11-29T01:08:13.777Z,29.90
2022-11-29T01:10:43.993Z,33.58
2022-11-29T01:13:14.723Z,31.45
2022-11-29T01:15:47.711Z,22.05
2022-11-29T01:18:17.736Z,36.17
2022-11-29T01:20:47.850Z,38.38
2022-11-29T01:23:17.915Z,36.40
2022-11-29T01:25:59.035Z,43.22
2022-11-29T01:28:29.931Z,39.90
2022-11-29T01:31:08.576Z,42.08
2022-11-29T01:33:39.001Z,37.28
2022-11-29T01:36:11.040Z,40.30
2022-11-29T01:38:42.540Z,38.05
2022-11-29T01:41:16.111Z,36.42
2022-11-29T01:44:01.656Z,41.78
2022-11-29T01:46:36.587Z,41.63
2022-11-29T01:49:11.933Z,56.00
2022-11-29T01:51:45.176Z,38.70
2022-11-29T01:54:16.815Z,41.42
2022-11-29T01:56:49.481Z,37.75
2022-11-29T01:59:23.431Z,21.55
2022-11-29T02:04:26.361Z,24.60
2022-11-29T02:06:56.932Z,35.65
2022-11-29T02:09:27.093Z,40.97
2022-11-29T02:12:10.567Z,33.28
2022-11-29T02:14:54.907Z,40.67
2022-11-29T02:17:36.111Z,41.42
2022-11-29T02:20:32.508Z,34.33
2022-11-29T02:23:15.902Z,27.08
2022-11-29T02:26:02.941Z,30.07
2022-11-29T02:29:02.980Z,29.52
2022-11-29T02:31:58.357Z,21.08
2022-11-29T02:35:00.142Z,17.15
2022-11-29T02:37:55.287Z,31.65
2022-11-29T02:40:56.894Z,25.65
2022-11-29T02:43:52.636Z,20.17
2022-11-29T02:46:45.605Z,14.70
2022-11-29T02:49:25.704Z,19.90
2022-11-29T02:52:03.143Z,18.05
2022-11-29T02:54:41.542Z,30.40
2022-11-29T02:57:24.495Z,14.82
2022-11-29T03:00:04.759Z,21.25
2022-11-29T03:02:42.566Z,19.83
2022-11-29T03:05:21.740Z,25.17
2022-11-29T03:08:01.485Z,23.58
2022-11-29T03:10:42.012Z,20.98
2022-11-29T03:13:20.875Z,17.17
2022-11-29T03:16:00.545Z,25.08
2022-11-29T03:18:45.226Z,24.83
2022-11-29T03:21:21.959Z,14.77
2022-11-29T03:23:58.191Z,17.98
2022-11-29T03:26:35.248Z,24.45
2022-11-29T03:29:10.385Z,14.82
2022-11-29T03:31:46.623Z,17.35
2022-11-29T03:34:24.225Z,15.50
2022-11-29T03:37:03.243Z,17.10
2022-11-29T03:39:45.531Z,14.35
2022-11-29T03:42:22.531Z,16.15
2022-11-29T03:45:00.133Z,16.42
2022-11-29T03:47:35.016Z,13.23
2022-11-29T03:50:10.032Z,13.05
2022-11-29T03:52:49.299Z,18.33
2022-11-29T03:55:36.211Z,13.90
2022-11-29T03:58:27.796Z,15.88
2022-11-29T04:01:24.853Z,13.40
2022-11-29T04:04:19.020Z,17.15
2022-11-29T04:07:04.440Z,19.17
2022-11-29T04:10:00.240Z,14.98
2022-11-29T04:13:03.166Z,14.02
2022-11-29T04:16:06.365Z,11.45
2022-11-29T04:18:59.014Z,16.98
2022-11-29T04:21:36.508Z,19.05
2022-11-29T04:24:27.576Z,14.43
2022-11-29T04:27:31.881Z,19.98
2022-11-29T04:30:21.990Z,24.13
2022-11-29T04:33:24.601Z,17.35
2022-11-29T04:36:29.939Z,19.65
2022-11-29T04:39:31.668Z,20.98
2022-11-29T04:42:31.552Z,18.30
2022-11-29T04:45:42.792Z,20.35
2022-11-29T04:48:45.687Z,26.00
2022-11-29T04:51:29.051Z,14.88
2022-11-29T04:54:09.867Z,19.17
2022-11-29T04:56:48.344Z,17.40
2022-11-29T04:59:26.874Z,15.73
2022-11-29T05:02:10.940Z,16.60
2022-11-29T05:04:51.348Z,20.65
2022-11-29T05:07:32.336Z,18.10
2022-11-29T05:10:14.021Z,18.75
2022-11-29T05:12:53.484Z,16.25
2022-11-29T05:15:50.692Z,15.70
2022-11-29T05:18:42.974Z,14.60
2022-11-29T05:21:22.029Z,16.73
2022-11-29T05:24:02.531Z,19.20
2022-11-29T05:26:36.730Z,18.73
2022-11-29T05:29:13.728Z,22.33
2022-11-29T05:32:06.018Z,24.95
2022-11-29T05:34:58.053Z,23.85
2022-11-29T05:37:38.262Z,23.00
2022-11-29T05:40:27.837Z,23.27
2022-11-29T05:43:14.192Z,16.63
2022-11-29T05:45:49.943Z,22.17
2022-11-29T05:48:27.684Z,19.25
2022-11-29T05:51:14.321Z,14.95
2022-11-29T05:53:50.351Z,17.25
2022-11-29T05:56:30.564Z,18.45
2022-11-29T05:59:05.406Z,16.45
2022-11-29T06:01:44.609Z,21.00
2022-11-29T06:04:21.363Z,18.42
2022-11-29T06:06:59.759Z,19.52
2022-11-29T06:09:33.562Z,18.23
2022-11-29T06:12:09.924Z,39.90
2022-11-29T06:15:00.393Z,28.02
2022-11-29T06:17:49.986Z,25.23
2022-11-29T06:20:45.311Z,28.65
2022-11-29T06:23:31.595Z,24.48
2022-11-29T06:26:13.870Z,25.83
2022-11-29T06:29:01.892Z,29.13
2022-11-29T06:31:37.918Z,26.25
2022-11-29T06:34:19.547Z,26.33
2022-11-29T06:36:53.869Z,25.15
2022-11-29T06:39:24.606Z,26.23
2022-11-29T06:41:54.683Z,23.50
2022-11-29T06:44:31.383Z,20.80
2022-11-29T06:47:08.762Z,18.58
2022-11-29T06:49:45.658Z,15.55
2022-11-29T06:52:30.443Z,18.63
2022-11-29T06:55:13.543Z,16.27
2022-11-29T06:57:54.859Z,20.52
2022-11-29T07:00:29.922Z,18.98
2022-11-29T07:03:24.576Z,14.75
2022-11-29T07:05:55.636Z,18.42
2022-11-29T07:08:26.976Z,16.63
2022-11-29T07:10:59.712Z,15.18
2022-11-29T07:13:30.454Z,18.70
2022-11-29T07:16:09.705Z,20.13
2022-11-29T07:18:46.327Z,22.50
2022-11-29T07:21:24.255Z,15.90
2022-11-29T07:24:05.542Z,16.42
2022-11-29T07:26:39.863Z,14.68
2022-11-29T07:29:23.510Z,14.07
2022-11-29T07:32:08.489Z,20.10
2022-11-29T07:34:47.391Z,17.55
2022-11-29T07:37:29.211Z,18.08
2022-11-29T07:40:05.723Z,17.25
2022-11-29T07:42:48.612Z,15.65
2022-11-29T07:45:26.825Z,18.33
2022-11-29T07:47:59.470Z,15.50
2022-11-29T07:50:30.725Z,15.40
2022-11-29T07:53:02.076Z,13.55
2022-11-29T07:55:32.552Z,11.43
2022-11-29T07:58:02.653Z,13.10
2022-11-29T08:00:32.836Z,16.50
2022-11-29T08:03:05.596Z,15.95
2022-11-29T08:05:35.627Z,15.50
2022-11-29T08:08:06.775Z,16.05
2022-11-29T08:10:36.895Z,12.75
2022-11-29T08:13:06.911Z,17.13
2022-11-29T08:15:37.065Z,20.63
2022-11-29T08:18:09.847Z,16.95
2022-11-29T08:20:41.775Z,12.05
2022-11-29T08:23:14.456Z,14.75
2022-11-29T08:25:46.046Z,18.48
2022-11-29T08:28:17.138Z,17.02
2022-11-29T08:30:47.230Z,13.88
2022-11-29T08:33:19.885Z,16.00
2022-11-29T08:35:49.912Z,17.42
2022-11-29T08:38:20.005Z,16.33
2022-11-29T08:40:50.229Z,19.58
2022-11-29T08:43:20.260Z,19.67
2022-11-29T08:45:54.505Z,18.13
2022-11-29T08:48:27.591Z,14.75
2022-11-29T08:50:59.232Z,23.63
2022-11-29T08:53:41.918Z,15.35
2022-11-29T08:56:53.367Z,15.57
2022-11-29T08:59:03.115Z,17.48
2022-11-29T09:01:34.276Z,13.88
2022-11-29T09:04:10.569Z,19.95
2022-11-29T09:06:44.587Z,16.33
2022-11-29T09:09:14.813Z,11.98
2022-11-29T09:11:49.182Z,17.00
2022-11-29T09:14:22.493Z,13.90
2022-11-29T09:16:52.616Z,16.67
2022-11-29T09:19:25.455Z,13.75
2022-11-29T09:21:55.579Z,14.65
2022-11-29T09:24:25.905Z,16.33
2022-11-29T09:26:55.952Z,17.73
2022-11-29T09:29:26.198Z,17.23
2022-11-29T09:31:56.268Z,15.63
2022-11-29T09:34:29.045Z,19.25
2022-11-29T09:36:59.292Z,22.52
2022-11-29T09:39:29.391Z,20.15
2022-11-29T09:42:30.399Z,17.52
2022-11-29T09:45:06.993Z,18.52
2022-11-29T09:48:11.140Z,15.43
2022-11-29T09:50:51.015Z,18.23
2022-11-29T09:53:49.658Z,17.27
2022-11-29T09:56:25.943Z,18.70
2022-11-29T09:59:01.806Z,20.65
2022-11-29T10:01:37.574Z,16.60
2022-11-29T10:04:12.958Z,19.40
2022-11-29T10:06:52.264Z,20.25
2022-11-29T10:09:33.973Z,20.48
2022-11-29T10:12:15.195Z,19.63
2022-11-29T10:14:51.368Z,17.77
2022-11-29T10:17:32.848Z,17.67
2022-11-29T10:20:09.215Z,18.65
2022-11-29T10:22:49.464Z,18.50
2022-11-29T10:25:27.045Z,18.52
2022-11-29T10:27:57.489Z,16.67
2022-11-29T10:30:27.689Z,19.50
2022-11-29T10:33:00.661Z,16.35
2022-11-29T10:35:30.901Z,18.45
2022-11-29T10:38:29.801Z,17.55
2022-11-29T10:41:00.947Z,21.42
2022-11-29T10:43:31.087Z,17.10
2022-11-29T10:46:03.812Z,21.77
2022-11-29T10:48:36.978Z,20.58
2022-11-29T10:51:14.613Z,19.60
2022-11-29T10:53:48.471Z,21.45
2022-11-29T10:56:27.634Z,19.55
2022-11-29T10:59:03.264Z,21.98
2022-11-29T11:01:35.115Z,20.70
2022-11-29T11:04:07.487Z,16.67
2022-11-29T11:06:48.132Z,17.38
2022-11-29T11:09:34.616Z,20.77
2022-11-29T11:12:08.171Z,17.83
2022-11-29T11:14:40.958Z,18.35
2022-11-29T11:17:26.607Z,15.65
2022-11-29T11:20:04.671Z,18.77
2022-11-29T11:22:39.594Z,20.73
2022-11-29T11:25:30.279Z,16.42
2022-11-29T11:28:01.297Z,17.05
2022-11-29T11:30:32.310Z,20.88
2022-11-29T11:33:19.219Z,21.48
2022-11-29T11:36:04.272Z,19.50
2022-11-29T11:38:35.269Z,19.17
2022-11-29T11:41:20.364Z,25.73
2022-11-29T11:43:56.848Z,24.17
2022-11-29T11:46:47.249Z,19.80
2022-11-29T11:49:27.980Z,16.38
2022-11-29T11:51:58.329Z,18.83
2022-11-29T11:54:28.913Z,20.33
2022-11-29T11:57:02.731Z,17.70
2022-11-29T11:59:32.901Z,18.55
2022-11-29T12:02:05.819Z,18.83
2022-11-29T12:04:40.183Z,15.93
2022-11-29T12:07:33.791Z,17.65
2022-11-29T12:10:21.567Z,18.75
2022-11-29T12:13:01.167Z,17.42
2022-11-29T12:15:34.079Z,18.83
2022-11-29T12:18:08.836Z,17.98
2022-11-29T12:20:44.042Z,21.95
2022-11-29T12:23:30.051Z,18.33
2022-11-29T12:26:05.835Z,21.80
2022-11-29T12:28:43.062Z,19.20
2022-11-29T12:31:27.196Z,21.75
2022-11-29T12:34:06.467Z,19.00
2022-11-29T12:36:49.050Z,21.23
2022-11-29T12:39:39.712Z,19.35
2022-11-29T12:42:20.038Z,21.08
2022-11-29T12:45:02.099Z,21.30
2022-11-29T12:47:50.353Z,21.20
2022-11-29T12:50:35.068Z,22.40
2022-11-29T12:53:26.732Z,21.38
2022-11-29T12:56:07.162Z,21.00
2022-11-29T12:58:47.532Z,20.70
2022-11-29T13:01:32.537Z,22.80
2022-11-29T13:04:13.131Z,22.45
2022-11-29T13:06:51.324Z,23.45
2022-11-29T13:09:47.798Z,20.75
2022-11-29T13:12:28.591Z,24.92
2022-11-29T13:15:05.880Z,16.42
2022-11-29T13:17:45.433Z,22.23
2022-11-29T13:20:31.498Z,17.33
2022-11-29T13:23:14.835Z,19.42
2022-11-29T13:25:50.362Z,18.17
2022-11-29T13:28:25.849Z,16.90
2022-11-29T13:31:01.942Z,21.38
2022-11-29T13:33:42.672Z,18.63
2022-11-29T13:36:18.794Z,17.83
2022-11-29T13:38:59.751Z,21.52
2022-11-29T13:41:33.936Z,17.17
2022-11-29T13:44:12.945Z,16.10
2022-11-29T13:46:49.340Z,18.77
2022-11-29T13:49:49.148Z,18.83
2022-11-29T13:52:34.056Z,15.82
2022-11-29T14:00:53.169Z,19.48
2022-11-29T14:03:34.316Z,19.55
2022-11-29T14:06:13.364Z,20.08
2022-11-29T14:11:48.859Z,31.15
2022-11-29T14:14:27.691Z,29.73
2022-11-29T14:17:02.207Z,24.92
2022-11-29T14:19:34.720Z,28.92
2022-11-29T14:22:32.912Z,28.77
2022-11-29T14:28:33.075Z,24.40
2022-11-29T14:31:04.323Z,23.80
2022-11-29T14:33:55.435Z,24.98
2022-11-29T14:36:46.186Z,26.17
2022-11-29T14:39:35.066Z,28.27
2022-11-29T14:42:18.772Z,25.80
2022-11-29T14:44:52.735Z,29.45
2022-11-29T14:47:30.078Z,25.88
2022-11-29T14:50:10.557Z,24.05
2022-11-29T14:52:42.834Z,21.75
2022-11-29T14:55:35.899Z,27.35
2022-11-29T14:58:23.851Z,29.75
2022-11-29T15:01:11.183Z,29.50
2022-11-29T15:03:52.620Z,40.20
2022-11-29T15:06:29.347Z,38.78
2022-11-29T15:09:05.730Z,40.78
2022-11-29T15:11:53.731Z,37.55
2022-11-29T15:14:34.916Z,36.03
2022-11-29T15:17:19.927Z,39.05
2022-11-29T15:20:10.851Z,32.80
2022-11-29T15:22:52.094Z,37.92
2022-11-29T15:25:24.717Z,36.13
2022-11-29T15:27:56.621Z,41.42
2022-11-29T15:30:38.512Z,41.05
2022-11-29T15:33:10.997Z,37.05
2022-11-29T15:35:41.205Z,34.35
2022-11-29T15:38:20.981Z,31.13
2022-11-29T15:40:55.208Z,31.83
2022-11-29T15:46:00.298Z,36.28
2022-11-29T15:51:09.767Z,33.17
2022-11-29T15:53:47.279Z,33.38
2022-11-29T15:56:22.931Z,33.53
2022-11-29T15:59:03.134Z,37.92
2022-11-29T16:01:36.629Z,35.05
2022-11-29T16:04:07.070Z,39.25
2022-11-29T16:06:43.838Z,35.38
2022-11-29T16:09:19.056Z,34.97
2022-11-29T16:11:51.248Z,32.97
2022-11-29T16:14:25.070Z,40.22
2022-11-29T16:17:01.551Z,35.97
2022-11-29T16:19:37.109Z,42.55
2022-11-29T16:22:17.733Z,41.80
2022-11-29T16:24:56.904Z,44.10
2022-11-29T16:27:27.489Z,38.67
2022-11-29T16:29:57.985Z,38.90
2022-11-29T16:32:33.332Z,44.97
2022-11-29T16:35:09.919Z,36.03
2022-11-29T16:37:43.394Z,42.08
2022-11-29T16:40:25.100Z,44.97
2022-11-29T16:43:21.221Z,39.25
2022-11-29T16:45:51.384Z,39.03
2022-11-29T16:48:38.230Z,44.08
2022-11-29T16:51:20.998Z,41.10
2022-11-29T16:53:51.921Z,46.35
2022-11-29T16:56:23.987Z,43.17
2022-11-29T16:59:25.537Z,45.35
2022-11-29T17:01:48.018Z,48.88
2022-11-29T17:04:23.508Z,46.85
2022-11-29T17:06:55.018Z,50.22
2022-11-29T17:09:28.130Z,51.20
2022-11-29T17:11:59.939Z,60.35
2022-11-29T17:14:30.386Z,50.33
2022-11-29T17:17:01.171Z,54.92
2022-11-29T17:19:34.692Z,57.60
2022-11-29T17:22:04.800Z,54.90
2022-11-29T17:24:36.992Z,53.58
2022-11-29T17:27:07.407Z,45.58
2022-11-29T17:29:37.574Z,45.13
2022-11-29T17:32:10.163Z,40.83
2022-11-29T17:34:42.993Z,36.80
2022-11-29T17:37:13.161Z,45.63
2022-11-29T17:39:44.943Z,41.90
2022-11-29T17:42:15.339Z,47.88
2022-11-29T17:44:45.496Z,51.72
2022-11-29T17:47:15.637Z,57.42
2022-11-29T17:49:48.863Z,53.63
2022-11-29T17:52:19.036Z,79.82
2022-11-29T17:54:49.252Z,89.63
2022-11-29T17:57:19.990Z,73.05
2022-11-29T17:59:50.213Z,85.05
2022-11-29T18:02:20.414Z,68.43
2022-11-29T18:04:53.192Z,82.05
2022-11-29T18:07:23.372Z,80.15
2022-11-29T18:09:53.957Z,63.83
2022-11-29T18:12:24.550Z,81.65
2022-11-29T18:14:54.608Z,59.38
2022-11-29T18:17:27.526Z,60.33
2022-11-29T18:20:00.350Z,62.78
2022-11-29T18:22:31.640Z,59.58
2022-11-29T18:25:36.415Z,55.85
2022-11-29T18:27:54.288Z,58.53
2022-11-29T18:30:24.372Z,55.75
2022-11-29T18:32:54.438Z,56.80
2022-11-29T18:35:28.200Z,52.40
2022-11-29T18:38:14.644Z,50.10
2022-11-29T18:40:47.392Z,60.72
2022-11-29T18:43:19.650Z,58.42
2022-11-29T18:45:49.830Z,50.22
2022-11-29T18:48:19.958Z,62.60
2022-11-29T18:50:52.892Z,57.20
2022-11-29T18:53:22.971Z,65.30
2022-11-29T18:56:05.984Z,68.78
2022-11-29T18:58:37.111Z,58.75
2022-11-29T19:01:09.023Z,46.85
2022-11-29T19:03:41.048Z,52.63
2022-11-29T19:06:18.684Z,52.45
2022-11-29T19:08:49.371Z,56.28
2022-11-29T19:11:21.095Z,58.58
2022-11-29T19:13:56.765Z,54.15
2022-11-29T19:16:27.830Z,54.63
2022-11-29T19:19:02.060Z,59.58
2022-11-29T19:21:36.158Z,53.60
2022-11-29T19:26:45.840Z,53.22
2022-11-29T19:29:16.649Z,49.15
2022-11-29T19:31:50.515Z,53.42
2022-11-29T19:36:53.180Z,56.13
2022-11-29T19:39:23.441Z,60.75
2022-11-29T19:41:53.609Z,53.50
2022-11-29T19:44:29.176Z,63.78
2022-11-29T19:47:00.148Z,46.63
2022-11-29T19:49:30.333Z,36.25
2022-11-29T19:52:03.007Z,35.78
2022-11-29T19:54:33.123Z,28.77
2022-11-29T19:57:03.179Z,23.55
2022-11-29T19:59:35.042Z,21.15
2022-11-29T20:02:05.479Z,22.05
2022-11-29T20:04:40.732Z,22.27
2022-11-29T20:07:14.029Z,22.10
2022-11-29T20:09:44.930Z,23.67
2022-11-29T20:12:15.196Z,37.83
2022-11-29T20:14:45.376Z,35.90
2022-11-29T20:17:15.451Z,28.98
2022-11-29T20:19:45.948Z,29.00
2022-11-29T20:22:18.973Z,36.15
2022-11-29T20:24:49.125Z,46.42
2022-11-29T20:27:19.305Z,45.92
2022-11-29T20:29:49.543Z,48.30
2022-11-29T20:32:19.959Z,46.67
2022-11-29T20:34:51.052Z,48.35
2022-11-29T20:37:39.143Z,48.35
2022-11-29T20:40:14.467Z,43.47
2022-11-29T20:43:01.018Z,45.65
2022-11-29T20:45:32.018Z,39.38
2022-11-29T20:48:11.393Z,31.17
2022-11-29T20:50:42.097Z,36.03
2022-11-29T20:53:29.328Z,34.20
2022-11-29T20:55:59.523Z,35.58
2022-11-29T20:58:29.712Z,37.08
2022-11-29T21:01:00.132Z,34.22
2022-11-29T21:03:31.719Z,47.00
2022-11-29T21:06:04.991Z,45.88
2022-11-29T21:08:37.815Z,41.30
2022-11-29T21:11:11.043Z,38.47
2022-11-29T21:13:41.905Z,35.95
2022-11-29T21:16:17.622Z,34.72
2022-11-29T21:18:51.067Z,33.38
2022-11-29T21:21:27.722Z,28.17
2022-11-29T21:24:07.871Z,33.80
2022-11-29T21:26:44.087Z,30.63
2022-11-29T21:29:19.393Z,27.50
2022-11-29T21:31:52.621Z,26.20
2022-11-29T21:34:23.076Z,31.40
2022-11-29T21:36:58.858Z,26.80
2022-11-29T21:39:35.411Z,26.92
2022-11-29T21:42:05.727Z,27.85
2022-11-29T21:44:35.811Z,29.58
2022-11-29T21:47:05.958Z,30.90
2022-11-29T21:49:36.050Z,21.92
2022-11-29T21:52:06.616Z,25.88
2022-11-29T21:54:39.346Z,22.52
2022-11-29T21:57:09.433Z,23.50
2022-11-29T21:59:39.627Z,22.90
2022-11-29T22:02:11.174Z,26.23
2022-11-29T22:04:41.400Z,24.23
2022-11-29T22:07:11.578Z,19.55
2022-11-29T22:09:44.278Z,20.70
2022-11-29T22:12:33.080Z,20.95
2022-11-29T22:15:04.177Z,19.38
2022-11-29T22:17:34.408Z,19.13
2022-11-29T22:20:04.452Z,22.77
2022-11-29T22:22:34.535Z,20.77
2022-11-29T22:25:07.900Z,22.55
2022-11-29T22:27:37.940Z,27.08
2022-11-29T22:30:09.497Z,20.40
2022-11-29T22:32:39.479Z,25.77
2022-11-29T22:35:10.008Z,25.35
2022-11-29T22:37:40.043Z,24.60
2022-11-29T22:40:13.740Z,23.63
2022-11-29T22:42:44.204Z,21.40
2022-11-29T22:45:14.583Z,22.20
2022-11-29T22:47:44.622Z,21.75
2022-11-29T22:50:15.648Z,20.55
2022-11-29T22:52:45.744Z,19.55
2022-11-29T22:55:18.448Z,18.00
2022-11-29T22:57:48.750Z,20.55
2022-11-29T23:00:19.626Z,18.15
2022-11-29T23:02:49.754Z,28.35
2022-11-29T23:05:19.969Z,25.20
2022-11-29T23:07:50.597Z,20.83
2022-11-29T23:10:23.471Z,19.60
2022-11-29T23:12:53.813Z,19.38
2022-11-29T23:15:23.842Z,19.88
2022-11-29T23:17:53.996Z,24.40
2022-11-29T23:20:25.616Z,19.23
2022-11-29T23:22:56.990Z,17.35
2022-11-29T23:25:29.790Z,19.27
2022-11-29T23:28:00.100Z,20.20
2022-11-29T23:30:30.168Z,17.00
2022-11-29T23:33:00.217Z,18.80
2022-11-29T23:35:30.357Z,20.25
2022-11-29T23:38:00.759Z,22.55
2022-11-29T23:40:35.540Z,19.45
2022-11-29T23:43:05.569Z,28.35
2022-11-29T23:45:35.683Z,28.25
2022-11-29T23:48:05.975Z,22.88
2022-11-29T23:50:40.948Z,21.05
2022-11-29T23:53:11.108Z,21.52
2022-11-29T23:55:44.277Z,21.17
2022-11-29T23:58:14.455Z,19.10
